sensor_id;sensor_type;location;lat;lon;timestamp;temperature;humidity
3418;DHT22;68007;51.312;12.372;2023-02-27T00:02:02;1.50;91.40
3418;DHT22;68007;51.312;12.372;2023-02-27T00:04:30;1.50;91.20
3418;DHT22;68007;51.312;12.372;2023-02-27T00:06:57;1.50;91.30
3418;DHT22;68007;51.312;12.372;2023-02-27T00:09:25;1.40;91.30
3418;DHT22;68007;51.312;12.372;2023-02-27T00:11:52;1.40;91.40
3418;DHT22;68007;51.312;12.372;2023-02-27T00:14:21;1.40;91.50
3418;DHT22;68007;51.312;12.372;2023-02-27T00:16:49;1.40;91.90
3418;DHT22;68007;51.312;12.372;2023-02-27T00:19:16;1.40;91.50
3418;DHT22;68007;51.312;12.372;2023-02-27T00:21:44;1.40;91.50
3418;DHT22;68007;51.312;12.372;2023-02-27T00:24:11;1.30;91.60
3418;DHT22;68007;51.312;12.372;2023-02-27T00:26:39;1.30;91.60
3418;DHT22;68007;51.312;12.372;2023-02-27T00:29:06;1.30;91.60
3418;DHT22;68007;51.312;12.372;2023-02-27T00:31:36;1.30;91.80
3418;DHT22;68007;51.312;12.372;2023-02-27T00:34:03;1.30;91.60
3418;DHT22;68007;51.312;12.372;2023-02-27T00:36:31;1.30;91.80
3418;DHT22;68007;51.312;12.372;2023-02-27T00:38:58;1.20;91.80
3418;DHT22;68007;51.312;12.372;2023-02-27T00:41:26;1.20;91.80
3418;DHT22;68007;51.312;12.372;2023-02-27T00:43:53;1.20;91.80
3418;DHT22;68007;51.312;12.372;2023-02-27T00:46:20;1.20;92.00
3418;DHT22;68007;51.312;12.372;2023-02-27T00:48:49;1.20;92.00
3418;DHT22;68007;51.312;12.372;2023-02-27T00:51:17;1.20;91.90
3418;DHT22;68007;51.312;12.372;2023-02-27T00:53:45;1.20;92.00
3418;DHT22;68007;51.312;12.372;2023-02-27T00:56:13;1.10;91.90
3418;DHT22;68007;51.312;12.372;2023-02-27T00:58:40;1.10;91.90
3418;DHT22;68007;51.312;12.372;2023-02-27T01:01:08;1.10;92.00
3418;DHT22;68007;51.312;12.372;2023-02-27T01:03:35;1.10;91.90
3418;DHT22;68007;51.312;12.372;2023-02-27T01:06:04;1.10;92.00
3418;DHT22;68007;51.312;12.372;2023-02-27T01:08:33;1.10;92.10
3418;DHT22;68007;51.312;12.372;2023-02-27T01:11:00;1.10;92.10
3418;DHT22;68007;51.312;12.372;2023-02-27T01:13:28;1.10;92.20
3418;DHT22;68007;51.312;12.372;2023-02-27T01:15:55;1.10;92.10
3418;DHT22;68007;51.312;12.372;2023-02-27T01:18:23;1.10;92.40
3418;DHT22;68007;51.312;12.372;2023-02-27T01:20:51;1.00;92.20
3418;DHT22;68007;51.312;12.372;2023-02-27T01:23:21;1.10;92.30
3418;DHT22;68007;51.312;12.372;2023-02-27T01:25:49;1.00;92.30
3418;DHT22;68007;51.312;12.372;2023-02-27T01:28:16;1.10;92.30
3418;DHT22;68007;51.312;12.372;2023-02-27T01:30:44;1.00;92.30
3418;DHT22;68007;51.312;12.372;2023-02-27T01:33:11;1.00;92.30
3418;DHT22;68007;51.312;12.372;2023-02-27T01:35:39;1.00;92.30
3418;DHT22;68007;51.312;12.372;2023-02-27T01:38:06;1.00;92.30
3418;DHT22;68007;51.312;12.372;2023-02-27T01:40:36;1.00;92.40
3418;DHT22;68007;51.312;12.372;2023-02-27T01:43:05;0.90;92.40
3418;DHT22;68007;51.312;12.372;2023-02-27T01:45:34;0.90;92.40
3418;DHT22;68007;51.312;12.372;2023-02-27T01:48:11;0.90;92.60
3418;DHT22;68007;51.312;12.372;2023-02-27T01:50:44;0.90;93.00
3418;DHT22;68007;51.312;12.372;2023-02-27T01:53:12;1.00;92.80
3418;DHT22;68007;51.312;12.372;2023-02-27T01:55:42;1.00;92.80
3418;DHT22;68007;51.312;12.372;2023-02-27T01:58:11;0.90;92.80
3418;DHT22;68007;51.312;12.372;2023-02-27T02:00:39;0.90;92.90
3418;DHT22;68007;51.312;12.372;2023-02-27T02:03:14;0.90;92.90
3418;DHT22;68007;51.312;12.372;2023-02-27T02:05:44;0.90;92.90
3418;DHT22;68007;51.312;12.372;2023-02-27T02:08:14;0.90;93.00
3418;DHT22;68007;51.312;12.372;2023-02-27T02:10:45;0.90;93.00
3418;DHT22;68007;51.312;12.372;2023-02-27T02:13:13;1.00;92.90
3418;DHT22;68007;51.312;12.372;2023-02-27T02:15:46;1.00;92.90
3418;DHT22;68007;51.312;12.372;2023-02-27T02:18:19;1.00;92.90
3418;DHT22;68007;51.312;12.372;2023-02-27T02:21:16;1.00;92.90
3418;DHT22;68007;51.312;12.372;2023-02-27T02:24:26;1.00;92.90
3418;DHT22;68007;51.312;12.372;2023-02-27T02:27:04;1.00;92.90
3418;DHT22;68007;51.312;12.372;2023-02-27T02:29:59;1.00;92.80
3418;DHT22;68007;51.312;12.372;2023-02-27T02:36:23;1.10;92.80
3418;DHT22;68007;51.312;12.372;2023-02-27T02:39:18;1.10;92.70
3418;DHT22;68007;51.312;12.372;2023-02-27T02:41:57;1.10;92.80
3418;DHT22;68007;51.312;12.372;2023-02-27T02:44:35;1.10;92.90
3418;DHT22;68007;51.312;12.372;2023-02-27T02:47:09;1.10;92.90
3418;DHT22;68007;51.312;12.372;2023-02-27T02:49:44;1.10;93.10
3418;DHT22;68007;51.312;12.372;2023-02-27T02:52:21;1.10;93.00
3418;DHT22;68007;51.312;12.372;2023-02-27T02:54:57;1.10;93.20
3418;DHT22;68007;51.312;12.372;2023-02-27T02:57:29;1.10;93.10
3418;DHT22;68007;51.312;12.372;2023-02-27T03:00:02;1.10;93.30
3418;DHT22;68007;51.312;12.372;2023-02-27T03:02:35;1.10;93.40
3418;DHT22;68007;51.312;12.372;2023-02-27T03:05:07;1.10;93.50
3418;DHT22;68007;51.312;12.372;2023-02-27T03:07:38;1.10;93.50
3418;DHT22;68007;51.312;12.372;2023-02-27T03:10:12;1.00;93.60
3418;DHT22;68007;51.312;12.372;2023-02-27T03:12:45;1.00;93.50
3418;DHT22;68007;51.312;12.372;2023-02-27T03:15:18;1.00;93.70
3418;DHT22;68007;51.312;12.372;2023-02-27T03:17:49;1.00;93.70
3418;DHT22;68007;51.312;12.372;2023-02-27T03:20:22;1.10;93.70
3418;DHT22;68007;51.312;12.372;2023-02-27T03:22:53;1.10;93.70
3418;DHT22;68007;51.312;12.372;2023-02-27T03:25:24;1.10;93.70
3418;DHT22;68007;51.312;12.372;2023-02-27T03:27:55;1.20;93.70
3418;DHT22;68007;51.312;12.372;2023-02-27T03:30:28;1.10;93.60
3418;DHT22;68007;51.312;12.372;2023-02-27T03:33:01;1.10;93.50
3418;DHT22;68007;51.312;12.372;2023-02-27T03:35:39;1.20;93.60
3418;DHT22;68007;51.312;12.372;2023-02-27T03:38:16;1.20;93.70
3418;DHT22;68007;51.312;12.372;2023-02-27T03:40:53;1.20;93.70
3418;DHT22;68007;51.312;12.372;2023-02-27T03:43:28;1.10;93.90
3418;DHT22;68007;51.312;12.372;2023-02-27T03:46:01;1.20;94.00
3418;DHT22;68007;51.312;12.372;2023-02-27T03:48:30;1.20;94.00
3418;DHT22;68007;51.312;12.372;2023-02-27T03:50:59;1.20;94.30
3418;DHT22;68007;51.312;12.372;2023-02-27T03:53:31;1.20;94.00
3418;DHT22;68007;51.312;12.372;2023-02-27T03:56:01;1.20;94.00
3418;DHT22;68007;51.312;12.372;2023-02-27T03:58:30;1.20;93.90
3418;DHT22;68007;51.312;12.372;2023-02-27T04:00:58;1.20;94.00
3418;DHT22;68007;51.312;12.372;2023-02-27T04:03:26;1.20;94.20
3418;DHT22;68007;51.312;12.372;2023-02-27T04:05:54;1.20;94.20
3418;DHT22;68007;51.312;12.372;2023-02-27T04:08:50;1.20;94.20
3418;DHT22;68007;51.312;12.372;2023-02-27T04:11:34;1.20;94.20
3418;DHT22;68007;51.312;12.372;2023-02-27T04:14:21;1.20;94.20
3418;DHT22;68007;51.312;12.372;2023-02-27T04:16:59;1.20;94.30
3418;DHT22;68007;51.312;12.372;2023-02-27T04:19:47;1.20;94.30
3418;DHT22;68007;51.312;12.372;2023-02-27T04:22:25;1.20;94.10
3418;DHT22;68007;51.312;12.372;2023-02-27T04:24:57;1.20;94.20
3418;DHT22;68007;51.312;12.372;2023-02-27T04:27:36;1.20;94.20
3418;DHT22;68007;51.312;12.372;2023-02-27T04:30:14;1.20;94.20
3418;DHT22;68007;51.312;12.372;2023-02-27T04:32:48;1.30;94.20
3418;DHT22;68007;51.312;12.372;2023-02-27T04:35:21;1.30;94.20
3418;DHT22;68007;51.312;12.372;2023-02-27T04:37:54;1.30;94.30
3418;DHT22;68007;51.312;12.372;2023-02-27T04:40:26;1.30;94.30
3418;DHT22;68007;51.312;12.372;2023-02-27T04:42:56;1.30;94.40
3418;DHT22;68007;51.312;12.372;2023-02-27T04:45:26;1.30;94.30
3418;DHT22;68007;51.312;12.372;2023-02-27T04:47:57;1.30;94.20
3418;DHT22;68007;51.312;12.372;2023-02-27T04:50:31;1.30;94.20
3418;DHT22;68007;51.312;12.372;2023-02-27T04:53:03;1.30;94.10
3418;DHT22;68007;51.312;12.372;2023-02-27T04:55:34;1.30;94.30
3418;DHT22;68007;51.312;12.372;2023-02-27T04:58:06;1.30;94.30
3418;DHT22;68007;51.312;12.372;2023-02-27T05:00:36;1.30;94.40
3418;DHT22;68007;51.312;12.372;2023-02-27T05:03:10;1.30;94.60
3418;DHT22;68007;51.312;12.372;2023-02-27T05:05:40;1.30;94.60
3418;DHT22;68007;51.312;12.372;2023-02-27T05:08:13;1.30;94.60
3418;DHT22;68007;51.312;12.372;2023-02-27T05:10:46;1.30;94.70
3418;DHT22;68007;51.312;12.372;2023-02-27T05:13:19;1.30;94.90
3418;DHT22;68007;51.312;12.372;2023-02-27T05:15:52;1.30;94.90
3418;DHT22;68007;51.312;12.372;2023-02-27T05:18:22;1.30;94.80
3418;DHT22;68007;51.312;12.372;2023-02-27T05:20:56;1.30;94.80
3418;DHT22;68007;51.312;12.372;2023-02-27T05:23:33;1.30;94.80
3418;DHT22;68007;51.312;12.372;2023-02-27T05:26:08;1.30;94.70
3418;DHT22;68007;51.312;12.372;2023-02-27T05:28:46;1.40;94.70
3418;DHT22;68007;51.312;12.372;2023-02-27T05:31:20;1.30;94.70
3418;DHT22;68007;51.312;12.372;2023-02-27T05:33:55;1.30;94.70
3418;DHT22;68007;51.312;12.372;2023-02-27T05:36:29;1.40;94.60
3418;DHT22;68007;51.312;12.372;2023-02-27T05:39:02;1.40;94.50
3418;DHT22;68007;51.312;12.372;2023-02-27T05:41:33;1.40;94.50
3418;DHT22;68007;51.312;12.372;2023-02-27T05:44:06;1.40;94.50
3418;DHT22;68007;51.312;12.372;2023-02-27T05:46:37;1.40;94.60
3418;DHT22;68007;51.312;12.372;2023-02-27T05:49:09;1.30;94.70
3418;DHT22;68007;51.312;12.372;2023-02-27T05:51:42;1.30;94.80
3418;DHT22;68007;51.312;12.372;2023-02-27T05:54:17;1.30;94.80
3418;DHT22;68007;51.312;12.372;2023-02-27T05:56:50;1.30;94.90
3418;DHT22;68007;51.312;12.372;2023-02-27T05:59:24;1.30;95.00
3418;DHT22;68007;51.312;12.372;2023-02-27T06:01:54;1.30;95.00
3418;DHT22;68007;51.312;12.372;2023-02-27T06:04:22;1.30;95.00
3418;DHT22;68007;51.312;12.372;2023-02-27T06:06:50;1.30;95.00
3418;DHT22;68007;51.312;12.372;2023-02-27T06:09:17;1.20;95.20
3418;DHT22;68007;51.312;12.372;2023-02-27T06:11:45;1.30;94.90
3418;DHT22;68007;51.312;12.372;2023-02-27T06:14:13;1.30;94.90
3418;DHT22;68007;51.312;12.372;2023-02-27T06:16:42;1.20;94.90
3418;DHT22;68007;51.312;12.372;2023-02-27T06:19:09;1.30;94.90
3418;DHT22;68007;51.312;12.372;2023-02-27T06:21:37;1.30;94.90
3418;DHT22;68007;51.312;12.372;2023-02-27T06:24:05;1.30;94.90
3418;DHT22;68007;51.312;12.372;2023-02-27T06:26:32;1.30;94.90
3418;DHT22;68007;51.312;12.372;2023-02-27T06:29:00;1.30;94.80
3418;DHT22;68007;51.312;12.372;2023-02-27T06:31:27;1.30;94.90
3418;DHT22;68007;51.312;12.372;2023-02-27T06:33:56;1.30;95.00
3418;DHT22;68007;51.312;12.372;2023-02-27T06:36:24;1.20;95.30
3418;DHT22;68007;51.312;12.372;2023-02-27T06:38:51;1.20;95.40
3418;DHT22;68007;51.312;12.372;2023-02-27T06:41:19;1.20;95.30
3418;DHT22;68007;51.312;12.372;2023-02-27T06:43:46;1.20;95.40
3418;DHT22;68007;51.312;12.372;2023-02-27T06:46:14;1.20;95.60
3418;DHT22;68007;51.312;12.372;2023-02-27T06:48:41;1.20;95.50
3418;DHT22;68007;51.312;12.372;2023-02-27T06:51:10;1.20;95.40
3418;DHT22;68007;51.312;12.372;2023-02-27T06:53:38;1.20;95.60
3418;DHT22;68007;51.312;12.372;2023-02-27T06:56:06;1.20;95.50
3418;DHT22;68007;51.312;12.372;2023-02-27T06:58:33;1.30;95.60
3418;DHT22;68007;51.312;12.372;2023-02-27T07:01:02;1.20;95.60
3418;DHT22;68007;51.312;12.372;2023-02-27T07:03:29;1.30;95.80
3418;DHT22;68007;51.312;12.372;2023-02-27T07:05:57;1.30;95.70
3418;DHT22;68007;51.312;12.372;2023-02-27T07:08:26;1.30;95.80
3418;DHT22;68007;51.312;12.372;2023-02-27T07:10:53;1.30;95.70
3418;DHT22;68007;51.312;12.372;2023-02-27T07:13:21;1.30;95.70
3418;DHT22;68007;51.312;12.372;2023-02-27T07:15:49;1.30;95.70
3418;DHT22;68007;51.312;12.372;2023-02-27T07:18:17;1.40;95.90
3418;DHT22;68007;51.312;12.372;2023-02-27T07:20:46;1.40;95.50
3418;DHT22;68007;51.312;12.372;2023-02-27T07:23:15;1.40;95.40
3418;DHT22;68007;51.312;12.372;2023-02-27T07:25:45;1.50;95.40
3418;DHT22;68007;51.312;12.372;2023-02-27T07:28:13;1.50;95.40
3418;DHT22;68007;51.312;12.372;2023-02-27T07:30:41;1.50;95.40
3418;DHT22;68007;51.312;12.372;2023-02-27T07:33:08;1.50;95.50
3418;DHT22;68007;51.312;12.372;2023-02-27T07:35:36;1.50;95.60
3418;DHT22;68007;51.312;12.372;2023-02-27T07:38:04;1.50;95.70
3418;DHT22;68007;51.312;12.372;2023-02-27T07:40:31;1.50;95.70
3418;DHT22;68007;51.312;12.372;2023-02-27T07:43:00;1.50;95.70
3418;DHT22;68007;51.312;12.372;2023-02-27T07:45:27;1.50;95.70
3418;DHT22;68007;51.312;12.372;2023-02-27T07:47:55;1.60;95.70
3418;DHT22;68007;51.312;12.372;2023-02-27T07:50:23;1.60;95.60
3418;DHT22;68007;51.312;12.372;2023-02-27T07:52:51;1.60;95.50
3418;DHT22;68007;51.312;12.372;2023-02-27T07:55:18;1.60;95.40
3418;DHT22;68007;51.312;12.372;2023-02-27T07:57:46;1.60;95.40
3418;DHT22;68007;51.312;12.372;2023-02-27T08:00:16;1.70;95.40
3418;DHT22;68007;51.312;12.372;2023-02-27T08:02:44;1.70;95.30
3418;DHT22;68007;51.312;12.372;2023-02-27T08:05:11;1.70;95.30
3418;DHT22;68007;51.312;12.372;2023-02-27T08:07:39;1.70;95.50
3418;DHT22;68007;51.312;12.372;2023-02-27T08:10:07;1.70;95.40
3418;DHT22;68007;51.312;12.372;2023-02-27T08:12:34;1.70;95.30
3418;DHT22;68007;51.312;12.372;2023-02-27T08:15:03;1.70;95.40
3418;DHT22;68007;51.312;12.372;2023-02-27T08:17:32;1.70;95.30
3418;DHT22;68007;51.312;12.372;2023-02-27T08:19:59;1.80;95.20
3418;DHT22;68007;51.312;12.372;2023-02-27T08:22:27;1.80;95.30
3418;DHT22;68007;51.312;12.372;2023-02-27T08:24:54;1.80;95.60
3418;DHT22;68007;51.312;12.372;2023-02-27T08:27:22;1.80;95.40
3418;DHT22;68007;51.312;12.372;2023-02-27T08:29:49;1.90;95.60
3418;DHT22;68007;51.312;12.372;2023-02-27T08:32:17;1.90;95.20
3418;DHT22;68007;51.312;12.372;2023-02-27T08:34:46;1.90;95.10
3418;DHT22;68007;51.312;12.372;2023-02-27T08:37:14;2.00;95.10
3418;DHT22;68007;51.312;12.372;2023-02-27T08:39:42;2.00;94.90
3418;DHT22;68007;51.312;12.372;2023-02-27T08:42:09;2.10;94.90
3418;DHT22;68007;51.312;12.372;2023-02-27T08:44:37;2.10;94.80
3418;DHT22;68007;51.312;12.372;2023-02-27T08:47:04;2.10;94.90
3418;DHT22;68007;51.312;12.372;2023-02-27T08:49:32;2.10;95.00
3418;DHT22;68007;51.312;12.372;2023-02-27T08:52:01;2.20;94.90
3418;DHT22;68007;51.312;12.372;2023-02-27T08:54:30;2.20;95.00
3418;DHT22;68007;51.312;12.372;2023-02-27T08:56:58;2.20;95.00
3418;DHT22;68007;51.312;12.372;2023-02-27T08:59:25;2.20;95.10
3418;DHT22;68007;51.312;12.372;2023-02-27T09:01:53;2.20;95.20
3418;DHT22;68007;51.312;12.372;2023-02-27T09:04:20;2.30;95.20
3418;DHT22;68007;51.312;12.372;2023-02-27T09:06:48;2.30;95.00
3418;DHT22;68007;51.312;12.372;2023-02-27T09:09:17;2.30;94.90
3418;DHT22;68007;51.312;12.372;2023-02-27T09:11:44;2.40;94.90
3418;DHT22;68007;51.312;12.372;2023-02-27T09:14:12;2.40;94.90
3418;DHT22;68007;51.312;12.372;2023-02-27T09:16:40;2.40;94.90
3418;DHT22;68007;51.312;12.372;2023-02-27T09:19:07;2.50;94.90
3418;DHT22;68007;51.312;12.372;2023-02-27T09:21:35;2.50;94.80
3418;DHT22;68007;51.312;12.372;2023-02-27T09:24:03;2.50;95.00
3418;DHT22;68007;51.312;12.372;2023-02-27T09:26:32;2.50;94.90
3418;DHT22;68007;51.312;12.372;2023-02-27T09:29:00;2.60;95.00
3418;DHT22;68007;51.312;12.372;2023-02-27T09:31:27;2.60;94.90
3418;DHT22;68007;51.312;12.372;2023-02-27T09:33:55;2.70;94.70
3418;DHT22;68007;51.312;12.372;2023-02-27T09:36:23;2.70;94.70
3418;DHT22;68007;51.312;12.372;2023-02-27T09:38:51;2.70;94.60
3418;DHT22;68007;51.312;12.372;2023-02-27T09:41:38;2.80;94.60
3418;DHT22;68007;51.312;12.372;2023-02-27T09:44:17;2.80;94.70
3418;DHT22;68007;51.312;12.372;2023-02-27T09:46:47;2.90;94.70
3418;DHT22;68007;51.312;12.372;2023-02-27T09:49:18;3.00;94.70
3418;DHT22;68007;51.312;12.372;2023-02-27T09:51:50;3.00;94.90
3418;DHT22;68007;51.312;12.372;2023-02-27T09:54:18;2.90;94.30
3418;DHT22;68007;51.312;12.372;2023-02-27T09:56:50;3.00;94.30
3418;DHT22;68007;51.312;12.372;2023-02-27T09:59:30;3.00;94.30
3418;DHT22;68007;51.312;12.372;2023-02-27T10:02:07;3.00;94.30
3418;DHT22;68007;51.312;12.372;2023-02-27T10:04:44;3.00;94.30
3418;DHT22;68007;51.312;12.372;2023-02-27T10:07:21;3.10;94.20
3418;DHT22;68007;51.312;12.372;2023-02-27T10:10:01;3.10;93.80
3418;DHT22;68007;51.312;12.372;2023-02-27T10:12:42;3.20;93.60
3418;DHT22;68007;51.312;12.372;2023-02-27T10:15:16;3.30;93.80
3418;DHT22;68007;51.312;12.372;2023-02-27T10:17:48;3.30;93.70
3418;DHT22;68007;51.312;12.372;2023-02-27T10:20:21;3.30;93.70
3418;DHT22;68007;51.312;12.372;2023-02-27T10:22:51;3.40;93.70
3418;DHT22;68007;51.312;12.372;2023-02-27T10:25:20;3.40;93.80
3418;DHT22;68007;51.312;12.372;2023-02-27T10:27:54;3.50;93.80
3418;DHT22;68007;51.312;12.372;2023-02-27T10:30:25;3.50;93.60
3418;DHT22;68007;51.312;12.372;2023-02-27T10:32:59;3.60;93.40
3418;DHT22;68007;51.312;12.372;2023-02-27T10:35:31;3.70;93.20
3418;DHT22;68007;51.312;12.372;2023-02-27T10:38:05;3.70;92.90
3418;DHT22;68007;51.312;12.372;2023-02-27T10:40:35;3.80;92.90
3418;DHT22;68007;51.312;12.372;2023-02-27T10:43:06;3.80;92.00
3418;DHT22;68007;51.312;12.372;2023-02-27T10:45:34;3.90;92.70
3418;DHT22;68007;51.312;12.372;2023-02-27T10:48:01;3.90;92.80
3418;DHT22;68007;51.312;12.372;2023-02-27T10:50:34;3.90;92.40
3418;DHT22;68007;51.312;12.372;2023-02-27T10:53:05;3.90;92.10
3418;DHT22;68007;51.312;12.372;2023-02-27T10:55:35;4.00;92.30
3418;DHT22;68007;51.312;12.372;2023-02-27T10:58:05;4.00;92.50
3418;DHT22;68007;51.312;12.372;2023-02-27T11:00:40;4.00;92.60
3418;DHT22;68007;51.312;12.372;2023-02-27T11:03:18;4.10;92.90
3418;DHT22;68007;51.312;12.372;2023-02-27T11:05:52;4.10;92.30
3418;DHT22;68007;51.312;12.372;2023-02-27T11:08:23;4.10;92.20
3418;DHT22;68007;51.312;12.372;2023-02-27T11:10:56;4.10;92.30
3418;DHT22;68007;51.312;12.372;2023-02-27T11:13:28;4.10;92.40
3418;DHT22;68007;51.312;12.372;2023-02-27T11:16:05;4.10;91.90
3418;DHT22;68007;51.312;12.372;2023-02-27T11:18:35;4.10;92.30
3418;DHT22;68007;51.312;12.372;2023-02-27T11:21:16;4.10;92.20
3418;DHT22;68007;51.312;12.372;2023-02-27T11:23:57;4.10;92.00
3418;DHT22;68007;51.312;12.372;2023-02-27T11:26:28;4.10;92.20
3418;DHT22;68007;51.312;12.372;2023-02-27T11:29:05;4.10;92.10
3418;DHT22;68007;51.312;12.372;2023-02-27T11:31:34;4.10;92.30
3418;DHT22;68007;51.312;12.372;2023-02-27T11:34:03;4.10;92.20
3418;DHT22;68007;51.312;12.372;2023-02-27T11:36:41;4.10;92.30
3418;DHT22;68007;51.312;12.372;2023-02-27T11:39:21;4.10;92.40
3418;DHT22;68007;51.312;12.372;2023-02-27T11:41:50;4.10;92.30
3418;DHT22;68007;51.312;12.372;2023-02-27T11:44:24;4.10;92.10
3418;DHT22;68007;51.312;12.372;2023-02-27T11:47:06;4.20;92.00
3418;DHT22;68007;51.312;12.372;2023-02-27T11:49:40;4.30;92.10
3418;DHT22;68007;51.312;12.372;2023-02-27T11:52:12;4.30;91.70
3418;DHT22;68007;51.312;12.372;2023-02-27T11:54:45;4.40;92.00
3418;DHT22;68007;51.312;12.372;2023-02-27T11:57:23;4.50;91.00
3418;DHT22;68007;51.312;12.372;2023-02-27T11:59:56;4.50;91.50
3418;DHT22;68007;51.312;12.372;2023-02-27T12:02:31;4.60;91.60
3418;DHT22;68007;51.312;12.372;2023-02-27T12:05:11;4.60;92.00
3418;DHT22;68007;51.312;12.372;2023-02-27T12:07:43;4.60;91.80
3418;DHT22;68007;51.312;12.372;2023-02-27T12:10:16;4.70;91.80
3418;DHT22;68007;51.312;12.372;2023-02-27T12:12:49;4.80;91.40
3418;DHT22;68007;51.312;12.372;2023-02-27T12:15:25;4.80;91.10
3418;DHT22;68007;51.312;12.372;2023-02-27T12:18:02;4.90;90.90
3418;DHT22;68007;51.312;12.372;2023-02-27T12:20:34;4.90;90.90
3418;DHT22;68007;51.312;12.372;2023-02-27T12:23:08;5.00;91.00
3418;DHT22;68007;51.312;12.372;2023-02-27T12:25:43;5.10;91.10
3418;DHT22;68007;51.312;12.372;2023-02-27T12:28:20;5.20;90.20
3418;DHT22;68007;51.312;12.372;2023-02-27T12:31:03;5.20;90.60
3418;DHT22;68007;51.312;12.372;2023-02-27T12:33:39;5.20;90.60
3418;DHT22;68007;51.312;12.372;2023-02-27T12:36:09;5.30;88.80
3418;DHT22;68007;51.312;12.372;2023-02-27T12:38:39;5.40;89.40
3418;DHT22;68007;51.312;12.372;2023-02-27T12:44:27;5.40;87.00
3418;DHT22;68007;51.312;12.372;2023-02-27T12:47:09;5.40;89.10
3418;DHT22;68007;51.312;12.372;2023-02-27T12:49:44;5.30;89.40
3418;DHT22;68007;51.312;12.372;2023-02-27T12:52:21;5.40;89.50
3418;DHT22;68007;51.312;12.372;2023-02-27T12:55:03;5.40;90.20
3418;DHT22;68007;51.312;12.372;2023-02-27T13:00:41;5.40;90.40
3418;DHT22;68007;51.312;12.372;2023-02-27T13:03:15;5.40;90.40
3418;DHT22;68007;51.312;12.372;2023-02-27T13:05:50;5.40;90.70
3418;DHT22;68007;51.312;12.372;2023-02-27T13:08:53;5.40;90.70
3418;DHT22;68007;51.312;12.372;2023-02-27T13:11:29;5.40;90.60
3418;DHT22;68007;51.312;12.372;2023-02-27T13:14:06;5.40;90.70
3418;DHT22;68007;51.312;12.372;2023-02-27T13:16:42;5.40;90.80
3418;DHT22;68007;51.312;12.372;2023-02-27T13:19:14;5.50;90.80
3418;DHT22;68007;51.312;12.372;2023-02-27T13:21:45;5.50;90.70
3418;DHT22;68007;51.312;12.372;2023-02-27T13:24:23;5.40;90.60
3418;DHT22;68007;51.312;12.372;2023-02-27T13:26:57;5.50;91.20
3418;DHT22;68007;51.312;12.372;2023-02-27T13:29:37;5.40;90.80
3418;DHT22;68007;51.312;12.372;2023-02-27T13:32:13;5.50;90.10
3418;DHT22;68007;51.312;12.372;2023-02-27T13:34:49;5.60;90.80
3418;DHT22;68007;51.312;12.372;2023-02-27T13:37:18;5.70;90.70
3418;DHT22;68007;51.312;12.372;2023-02-27T13:39:53;5.70;90.70
3418;DHT22;68007;51.312;12.372;2023-02-27T13:42:55;5.80;89.40
3418;DHT22;68007;51.312;12.372;2023-02-27T13:45:52;5.80;90.10
3418;DHT22;68007;51.312;12.372;2023-02-27T13:48:50;5.70;89.50
3418;DHT22;68007;51.312;12.372;2023-02-27T13:51:44;5.70;88.90
3418;DHT22;68007;51.312;12.372;2023-02-27T13:54:24;5.80;89.70
3418;DHT22;68007;51.312;12.372;2023-02-27T13:57:07;5.80;90.00
3418;DHT22;68007;51.312;12.372;2023-02-27T13:59:36;5.80;89.60
3418;DHT22;68007;51.312;12.372;2023-02-27T14:02:28;5.80;90.20
3418;DHT22;68007;51.312;12.372;2023-02-27T14:04:58;5.80;89.00
3418;DHT22;68007;51.312;12.372;2023-02-27T14:07:29;5.80;89.00
3418;DHT22;68007;51.312;12.372;2023-02-27T14:10:00;5.80;88.00
3418;DHT22;68007;51.312;12.372;2023-02-27T14:12:31;5.80;88.30
3418;DHT22;68007;51.312;12.372;2023-02-27T14:15:01;5.70;84.60
3418;DHT22;68007;51.312;12.372;2023-02-27T14:17:39;5.70;87.70
3418;DHT22;68007;51.312;12.372;2023-02-27T14:20:12;5.70;87.80
3418;DHT22;68007;51.312;12.372;2023-02-27T14:25:45;5.60;88.00
3418;DHT22;68007;51.312;12.372;2023-02-27T14:28:19;5.60;88.40
3418;DHT22;68007;51.312;12.372;2023-02-27T14:30:52;5.60;89.20
3418;DHT22;68007;51.312;12.372;2023-02-27T14:33:23;5.60;88.70
3418;DHT22;68007;51.312;12.372;2023-02-27T14:35:56;5.60;87.90
3418;DHT22;68007;51.312;12.372;2023-02-27T14:38:25;5.60;88.40
3418;DHT22;68007;51.312;12.372;2023-02-27T14:41:25;5.60;88.60
3418;DHT22;68007;51.312;12.372;2023-02-27T14:43:56;5.60;88.20
3418;DHT22;68007;51.312;12.372;2023-02-27T14:46:26;5.60;86.60
3418;DHT22;68007;51.312;12.372;2023-02-27T14:48:56;5.50;85.60
3418;DHT22;68007;51.312;12.372;2023-02-27T14:51:25;5.50;89.30
3418;DHT22;68007;51.312;12.372;2023-02-27T14:54:03;5.40;89.80
3418;DHT22;68007;51.312;12.372;2023-02-27T14:56:33;5.40;89.60
3418;DHT22;68007;51.312;12.372;2023-02-27T14:59:00;5.30;90.50
3418;DHT22;68007;51.312;12.372;2023-02-27T15:01:33;5.30;90.90
3418;DHT22;68007;51.312;12.372;2023-02-27T15:04:03;5.20;91.20
3418;DHT22;68007;51.312;12.372;2023-02-27T15:06:35;5.10;91.60
3418;DHT22;68007;51.312;12.372;2023-02-27T15:09:03;5.10;91.70
3418;DHT22;68007;51.312;12.372;2023-02-27T15:11:34;5.10;91.90
3418;DHT22;68007;51.312;12.372;2023-02-27T15:14:06;5.00;92.00
3418;DHT22;68007;51.312;12.372;2023-02-27T15:16:36;5.00;92.20
3418;DHT22;68007;51.312;12.372;2023-02-27T15:19:13;5.00;92.20
3418;DHT22;68007;51.312;12.372;2023-02-27T15:21:43;4.90;92.20
3418;DHT22;68007;51.312;12.372;2023-02-27T15:24:26;4.90;92.10
3418;DHT22;68007;51.312;12.372;2023-02-27T15:26:58;4.90;92.20
3418;DHT22;68007;51.312;12.372;2023-02-27T15:29:32;4.80;92.20
3418;DHT22;68007;51.312;12.372;2023-02-27T15:32:00;4.80;92.00
3418;DHT22;68007;51.312;12.372;2023-02-27T15:34:28;4.90;92.20
3418;DHT22;68007;51.312;12.372;2023-02-27T15:36:57;4.80;91.90
3418;DHT22;68007;51.312;12.372;2023-02-27T15:39:27;4.80;91.80
3418;DHT22;68007;51.312;12.372;2023-02-27T15:42:00;4.80;91.90
3418;DHT22;68007;51.312;12.372;2023-02-27T15:44:34;4.80;91.70
3418;DHT22;68007;51.312;12.372;2023-02-27T15:47:04;4.80;91.90
3418;DHT22;68007;51.312;12.372;2023-02-27T15:49:32;4.80;91.90
3418;DHT22;68007;51.312;12.372;2023-02-27T15:52:08;4.80;91.90
3418;DHT22;68007;51.312;12.372;2023-02-27T15:54:46;4.80;91.90
3418;DHT22;68007;51.312;12.372;2023-02-27T15:57:15;4.80;91.90
3418;DHT22;68007;51.312;12.372;2023-02-27T15:59:43;4.80;91.80
3418;DHT22;68007;51.312;12.372;2023-02-27T16:02:18;4.80;91.80
3418;DHT22;68007;51.312;12.372;2023-02-27T16:04:46;4.80;91.90
3418;DHT22;68007;51.312;12.372;2023-02-27T16:07:16;4.80;91.90
3418;DHT22;68007;51.312;12.372;2023-02-27T16:09:48;4.80;91.90
3418;DHT22;68007;51.312;12.372;2023-02-27T16:12:30;4.80;92.10
3418;DHT22;68007;51.312;12.372;2023-02-27T16:15:20;4.80;92.00
3418;DHT22;68007;51.312;12.372;2023-02-27T16:17:56;4.80;92.10
3418;DHT22;68007;51.312;12.372;2023-02-27T16:20:36;4.80;92.00
3418;DHT22;68007;51.312;12.372;2023-02-27T16:23:12;4.80;91.30
3418;DHT22;68007;51.312;12.372;2023-02-27T16:25:43;4.80;91.40
3418;DHT22;68007;51.312;12.372;2023-02-27T16:28:29;4.80;91.00
3418;DHT22;68007;51.312;12.372;2023-02-27T16:30:58;4.80;90.90